T'ai-nan, Taiwan
Current Conditions -  °F | °C
As of 3:00 AM on Sunday 26 Oct 2014 (Local Time) from RCKH Reporting Station
Haze Haze  
Wind Chill: 75°   Ceiling: 8000
Heat Index: 75°   Visibility: 2.8mi
Dew Point: 72°   Wind: 2mph
Humidity: 89%   Direction: 50°NE
Pressure: 29.97"   Gusts: NA
Location:  22.95°N, 120.2°E
Report Text: RCKH 251900Z 05002KT 4500 BR FEW015 BKN080 24/22 Q1015 TEMPO3000 BR RMK A2999
Loading
Personal Weather Stations






























Interactive Weather Map
Tropical Storm Tracking
New forecast layout! Learn more

10-Day Weather Forecast

Advertisements
Track Severe Weather on mobile